Time;durP1;ratioP1;P1;durP2;ratioP2;P2;SDS_P1;SDS_P2;PMS_P1;PMS_P2;Temp;Humidity;BMP_temperature;BMP_pressure;BME280_temperature;BME280_humidity;BME280_pressure;Samples;Min_cycle;Max_cycle;Signal;HPM_P1;HPM_P2
2021/12/27 00:01:27;;;;;;;95.90;33.23;;;-9.00;99.90;;;;;;5140187;27;20147;-68
2021/12/27 00:03:56;;;;;;;92.57;33.33;;;-9.10;99.90;;;;;;5141703;27;20187;-67
2021/12/27 00:06:23;;;;;;;92.43;33.77;;;-9.10;99.90;;;;;;5140082;27;20167;-68
2021/12/27 00:08:51;;;;;;;96.13;35.27;;;-9.10;99.90;;;;;;5139984;27;20151;-68
2021/12/27 00:11:19;;;;;;;101.90;36.23;;;-9.00;99.90;;;;;;5140127;27;20164;-67
2021/12/27 00:13:45;;;;;;;97.33;36.03;;;-9.10;99.90;;;;;;5141864;27;20146;-68
2021/12/27 00:16:12;;;;;;;94.13;34.63;;;-9.10;99.90;;;;;;5158778;27;20148;-68
2021/12/27 00:18:40;;;;;;;100.90;36.17;;;-9.20;99.90;;;;;;5141176;27;20137;-68
2021/12/27 00:21:07;;;;;;;103.53;36.97;;;-9.20;99.90;;;;;;5142371;27;20510;-68
2021/12/27 00:23:34;;;;;;;107.83;38.47;;;-9.20;99.90;;;;;;5140190;27;20183;-67
2021/12/27 00:26:02;;;;;;;114.00;39.50;;;-9.30;99.90;;;;;;5141446;27;20138;-68
2021/12/27 00:28:30;;;;;;;119.40;40.70;;;-9.30;99.90;;;;;;5142718;27;20144;-67
2021/12/27 00:30:57;;;;;;;111.40;38.37;;;-9.40;99.90;;;;;;5159466;27;20165;-67
2021/12/27 00:33:24;;;;;;;120.33;39.63;;;-9.40;99.90;;;;;;5140822;27;20183;-68
2021/12/27 00:35:52;;;;;;;114.23;39.60;;;-9.40;99.90;;;;;;5159137;27;20148;-68
2021/12/27 00:38:19;;;;;;;109.60;39.40;;;-9.40;99.90;;;;;;5157514;27;20140;-68
2021/12/27 00:40:46;;;;;;;109.20;39.20;;;-9.40;99.90;;;;;;5140951;27;20176;-67
2021/12/27 00:43:13;;;;;;;106.63;39.03;;;-9.40;99.90;;;;;;5159409;27;20134;-67
2021/12/27 00:45:40;;;;;;;114.27;38.97;;;-9.40;99.90;;;;;;5140327;27;20221;-67
2021/12/27 00:48:07;;;;;;;121.03;41.07;;;-9.40;99.90;;;;;;5158163;27;20180;-67
2021/12/27 00:50:35;;;;;;;120.30;41.50;;;-9.40;99.90;;;;;;5139953;27;20140;-68
2021/12/27 00:53:02;;;;;;;117.80;41.03;;;-9.40;99.90;;;;;;5140044;27;20156;-68
2021/12/27 00:55:29;;;;;;;114.33;39.37;;;-9.40;99.90;;;;;;5158655;27;20188;-68
2021/12/27 00:57:56;;;;;;;112.07;40.17;;;-9.50;99.90;;;;;;5160163;27;20361;-67
2021/12/27 01:00:27;;;;;;;125.10;41.63;;;-9.50;99.90;;;;;;5140469;27;20158;-67
2021/12/27 01:02:55;;;;;;;119.40;40.20;;;-9.50;99.90;;;;;;5140033;27;20192;-67
2021/12/27 01:05:24;;;;;;;122.17;41.70;;;-9.50;99.90;;;;;;5157759;27;20166;-68
2021/12/27 01:07:52;;;;;;;113.10;41.00;;;-9.50;99.90;;;;;;5139940;27;20151;-68
2021/12/27 01:10:45;;;;;;;115.13;39.23;;;-9.50;99.90;;;;;;5158765;27;20131;-68
2021/12/27 01:13:38;;;;;;;116.97;40.50;;;-9.50;99.90;;;;;;5140350;27;20208;-67
2021/12/27 01:18:35;;;;;;;117.40;40.67;;;-9.60;99.90;;;;;;5158056;27;20136;-68
2021/12/27 01:21:02;;;;;;;119.40;39.53;;;-9.60;99.90;;;;;;5139833;27;20148;-68
2021/12/27 01:23:29;;;;;;;111.90;40.53;;;-9.70;99.90;;;;;;5156942;27;20155;-67
2021/12/27 01:25:56;;;;;;;121.33;42.53;;;-9.70;99.90;;;;;;5158937;27;20116;-68
2021/12/27 01:28:23;;;;;;;120.67;40.37;;;-9.70;99.90;;;;;;5141435;27;20396;-68
2021/12/27 01:30:51;;;;;;;129.33;42.93;;;-9.70;99.90;;;;;;5141181;27;20155;-67
2021/12/27 01:33:21;;;;;;;114.63;43.37;;;-9.70;99.90;;;;;;5158331;27;20117;-68
2021/12/27 01:35:48;;;;;;;120.63;42.13;;;-9.70;99.90;;;;;;5159233;27;20411;-67
2021/12/27 01:38:15;;;;;;;124.80;41.27;;;-9.70;99.90;;;;;;5160719;27;20194;-67
2021/12/27 01:40:45;;;;;;;124.23;41.20;;;-9.70;99.90;;;;;;5159601;27;20120;-68
2021/12/27 01:43:19;;;;;;;118.73;41.47;;;-9.70;99.90;;;;;;5158842;27;20157;-68
2021/12/27 01:45:52;;;;;;;119.00;40.23;;;-9.80;99.90;;;;;;5141538;27;20147;-68
2021/12/27 01:48:23;;;;;;;107.03;38.90;;;-9.80;99.90;;;;;;5141478;27;20154;-67
2021/12/27 01:50:53;;;;;;;118.97;39.40;;;-9.80;99.90;;;;;;5160216;27;20376;-67
2021/12/27 01:53:22;;;;;;;106.20;39.40;;;-9.90;99.90;;;;;;5139918;27;20185;-68
2021/12/27 01:55:49;;;;;;;128.53;41.70;;;-9.90;99.90;;;;;;5140289;27;20139;-68
2021/12/27 01:58:18;;;;;;;116.27;39.60;;;-9.90;99.90;;;;;;5141527;27;20184;-67
2021/12/27 02:00:49;;;;;;;107.37;38.30;;;-10.00;99.90;;;;;;5158885;27;20147;-67
2021/12/27 02:03:18;;;;;;;118.87;40.57;;;-10.00;99.90;;;;;;5140553;27;20474;-67
2021/12/27 02:05:45;;;;;;;109.70;39.10;;;-10.00;99.90;;;;;;5141621;27;20194;-68
2021/12/27 02:08:12;;;;;;;108.87;37.23;;;-10.00;99.90;;;;;;5140286;27;20434;-68
2021/12/27 02:10:41;;;;;;;111.50;38.03;;;-10.00;99.90;;;;;;5140031;27;20144;-67
2021/12/27 02:13:08;;;;;;;111.03;38.30;;;-10.00;99.90;;;;;;5157918;27;20132;-68
2021/12/27 02:15:36;;;;;;;111.57;37.00;;;-10.00;99.90;;;;;;5160377;27;20116;-68
2021/12/27 02:18:04;;;;;;;109.50;38.57;;;-10.00;99.90;;;;;;5140287;27;20400;-67
2021/12/27 02:20:34;;;;;;;110.47;38.20;;;-10.00;99.90;;;;;;5139951;27;20136;-68
2021/12/27 02:23:07;;;;;;;109.97;38.60;;;-10.00;99.90;;;;;;5157708;27;20140;-67
2021/12/27 02:25:34;;;;;;;106.80;37.47;;;-10.10;99.90;;;;;;5140422;27;20170;-67
2021/12/27 02:28:05;;;;;;;111.60;38.27;;;-10.10;99.90;;;;;;5139248;27;20269;-68
2021/12/27 02:30:33;;;;;;;113.47;37.10;;;-10.20;99.90;;;;;;5139254;27;20175;-68
2021/12/27 02:33:05;;;;;;;103.10;36.90;;;-10.20;99.90;;;;;;5158227;27;20156;-67
2021/12/27 02:35:37;;;;;;;108.50;37.50;;;-10.20;99.90;;;;;;5157771;27;20183;-67
2021/12/27 02:38:07;;;;;;;113.90;37.97;;;-10.20;99.90;;;;;;5157755;27;20416;-67
2021/12/27 02:40:36;;;;;;;110.27;36.40;;;-10.20;99.90;;;;;;5140178;27;20592;-67
2021/12/27 02:43:11;;;;;;;107.97;37.53;;;-10.30;99.90;;;;;;5139747;27;20378;-67
2021/12/27 02:45:42;;;;;;;106.67;36.50;;;-10.20;99.90;;;;;;5159557;27;20158;-67
2021/12/27 02:48:10;;;;;;;108.20;37.50;;;-10.20;99.90;;;;;;5158172;27;20204;-67
2021/12/27 02:50:37;;;;;;;116.83;37.00;;;-10.20;99.90;;;;;;5139402;27;20150;-68
2021/12/27 02:53:06;;;;;;;110.23;36.90;;;-10.20;99.90;;;;;;5156492;27;20418;-67
2021/12/27 02:55:34;;;;;;;105.23;36.70;;;-10.30;99.90;;;;;;5160478;27;20131;-68
2021/12/27 02:58:01;;;;;;;108.97;37.30;;;-10.30;99.90;;;;;;5157082;27;20198;-67
2021/12/27 03:00:57;;;;;;;106.50;36.90;;;-10.30;99.90;;;;;;5140902;27;20192;-68
2021/12/27 03:03:25;;;;;;;124.60;37.47;;;-10.40;99.90;;;;;;5140037;27;20166;-67
2021/12/27 03:05:52;;;;;;;122.40;37.83;;;-10.40;99.90;;;;;;5156862;27;20210;-67
2021/12/27 03:08:21;;;;;;;120.10;39.80;;;-10.40;99.90;;;;;;5138724;27;20144;-67
2021/12/27 03:10:54;;;;;;;118.10;38.20;;;-10.50;99.90;;;;;;5141274;27;20178;-67
2021/12/27 03:13:32;;;;;;;123.27;38.17;;;-10.50;99.90;;;;;;5158116;27;20353;-67
2021/12/27 03:16:09;;;;;;;125.73;39.83;;;-10.50;99.90;;;;;;5139227;27;20143;-67
2021/12/27 03:18:39;;;;;;;121.73;39.07;;;-10.60;99.90;;;;;;5139930;27;20144;-68
2021/12/27 03:21:07;;;;;;;118.93;39.00;;;-10.60;99.90;;;;;;5157795;27;20469;-67
2021/12/27 03:23:36;;;;;;;123.17;40.13;;;-10.60;99.90;;;;;;5139830;27;20172;-67
2021/12/27 03:26:04;;;;;;;115.30;39.27;;;-10.60;99.90;;;;;;5141506;27;20179;-68
2021/12/27 03:28:32;;;;;;;123.00;39.10;;;-10.60;99.90;;;;;;5138831;27;20148;-68
2021/12/27 03:31:00;;;;;;;112.03;37.90;;;-10.60;99.90;;;;;;5157382;27;20404;-67
2021/12/27 03:33:27;;;;;;;125.40;39.50;;;-10.70;99.90;;;;;;5140820;27;20482;-67
2021/12/27 03:36:02;;;;;;;119.60;39.17;;;-10.70;99.90;;;;;;5140544;27;20152;-67
2021/12/27 03:38:33;;;;;;;113.20;39.20;;;-10.70;99.90;;;;;;5140484;27;20184;-68
2021/12/27 03:41:02;;;;;;;115.57;37.90;;;-10.70;99.90;;;;;;5159516;27;20396;-67
2021/12/27 03:43:29;;;;;;;115.33;37.90;;;-10.70;99.90;;;;;;5140549;27;20157;-67
2021/12/27 03:45:56;;;;;;;121.90;38.57;;;-10.70;99.90;;;;;;5157363;27;20242;-67
2021/12/27 03:48:23;;;;;;;109.23;36.60;;;-10.70;99.90;;;;;;5138877;27;20152;-68
2021/12/27 03:50:50;;;;;;;121.00;38.10;;;-10.70;99.90;;;;;;5140779;27;20144;-67
2021/12/27 03:53:17;;;;;;;121.27;38.70;;;-10.70;99.90;;;;;;5158083;27;20179;-68
2021/12/27 03:55:44;;;;;;;115.63;37.63;;;-10.80;99.90;;;;;;5139927;27;20179;-68
2021/12/27 03:58:24;;;;;;;108.63;36.03;;;-10.80;99.90;;;;;;5140741;27;20144;-67
2021/12/27 04:03:22;;;;;;;117.33;36.43;;;-10.80;99.90;;;;;;5139824;27;20137;-67
2021/12/27 04:05:49;;;;;;;107.27;35.37;;;-10.80;99.90;;;;;;5158453;27;20199;-68
2021/12/27 04:08:18;;;;;;;116.17;36.93;;;-10.70;99.90;;;;;;5156449;27;20200;-67
2021/12/27 04:10:46;;;;;;;109.50;36.47;;;-10.70;99.90;;;;;;5140493;27;20178;-67
2021/12/27 04:13:14;;;;;;;106.67;37.07;;;-10.60;99.90;;;;;;5140683;27;20175;-67
2021/12/27 04:15:41;;;;;;;112.23;36.20;;;-10.60;99.90;;;;;;5155569;27;20142;-67
2021/12/27 04:18:09;;;;;;;113.20;37.40;;;-10.50;99.90;;;;;;5141219;27;20136;-68
2021/12/27 04:20:37;;;;;;;101.67;35.07;;;-10.50;99.90;;;;;;5159539;27;20396;-68
2021/12/27 04:23:04;;;;;;;103.30;35.27;;;-10.50;99.90;;;;;;5156353;27;20160;-68
2021/12/27 04:25:31;;;;;;;104.73;35.83;;;-10.50;99.90;;;;;;5159742;27;20124;-67
2021/12/27 04:27:58;;;;;;;101.70;36.13;;;-10.50;99.90;;;;;;5158352;27;20156;-67
2021/12/27 04:30:26;;;;;;;97.93;35.07;;;-10.60;99.90;;;;;;5156023;27;20167;-67
2021/12/27 04:32:53;;;;;;;106.47;35.03;;;-10.60;99.90;;;;;;5156550;27;20184;-68
2021/12/27 04:35:21;;;;;;;104.60;35.97;;;-10.60;99.90;;;;;;5139766;27;20191;-68
2021/12/27 04:37:49;;;;;;;110.27;35.00;;;-10.60;99.90;;;;;;5139804;27;20195;-68
2021/12/27 04:40:19;;;;;;;100.57;34.30;;;-10.60;99.90;;;;;;5158039;27;20215;-67
2021/12/27 04:42:51;;;;;;;84.77;32.90;;;-10.70;99.90;;;;;;5158971;27;20176;-67
2021/12/27 04:45:18;;;;;;;99.50;32.10;;;-10.80;99.90;;;;;;5139740;27;20216;-67
2021/12/27 04:47:45;;;;;;;93.50;30.63;;;-10.80;99.90;;;;;;5161168;27;20128;-68
2021/12/27 04:50:12;;;;;;;88.43;30.67;;;-10.80;99.90;;;;;;5159500;27;20416;-68
2021/12/27 04:52:40;;;;;;;94.57;32.23;;;-10.90;99.90;;;;;;5141653;27;20151;-67
2021/12/27 04:55:09;;;;;;;86.53;29.67;;;-10.90;99.90;;;;;;5140254;27;20200;-67
2021/12/27 04:57:36;;;;;;;86.83;30.33;;;-11.00;99.90;;;;;;5157822;27;20147;-67
2021/12/27 05:00:05;;;;;;;90.13;28.97;;;-11.00;99.90;;;;;;5160568;27;20168;-67
2021/12/27 05:02:31;;;;;;;76.33;28.60;;;-11.00;99.90;;;;;;5139958;27;20144;-68
2021/12/27 05:04:58;;;;;;;80.93;28.60;;;-11.10;99.90;;;;;;5160161;27;20162;-67
2021/12/27 05:07:25;;;;;;;80.67;27.27;;;-11.10;99.90;;;;;;5159221;27;20370;-67
2021/12/27 05:09:52;;;;;;;75.87;28.47;;;-11.10;99.90;;;;;;5158643;27;20143;-67
2021/12/27 05:12:19;;;;;;;82.70;28.20;;;-11.10;99.90;;;;;;5158350;27;20183;-68
2021/12/27 05:14:46;;;;;;;82.23;27.50;;;-11.10;99.90;;;;;;5140626;27;20433;-67
2021/12/27 05:17:14;;;;;;;90.80;30.70;;;-11.10;99.90;;;;;;5139318;27;20428;-67
2021/12/27 05:19:41;;;;;;;88.07;29.37;;;-11.10;99.90;;;;;;5142342;27;20192;-67
2021/12/27 05:22:08;;;;;;;85.80;30.10;;;-11.10;99.90;;;;;;5159174;27;20370;-67
2021/12/27 05:24:35;;;;;;;81.20;27.40;;;-11.10;99.90;;;;;;5139612;27;20390;-67
2021/12/27 05:27:02;;;;;;;79.97;26.77;;;-11.10;99.90;;;;;;5159054;27;20200;-68
2021/12/27 05:29:30;;;;;;;86.07;28.37;;;-11.10;99.90;;;;;;5139803;27;20148;-68
2021/12/27 05:32:01;;;;;;;85.60;27.33;;;-11.20;99.90;;;;;;5142501;27;20179;-68
2021/12/27 05:34:34;;;;;;;85.00;27.57;;;-11.10;99.90;;;;;;5139202;27;20135;-67
2021/12/27 05:37:02;;;;;;;79.43;25.80;;;-11.20;99.90;;;;;;5160299;27;20152;-67
2021/12/27 05:39:29;;;;;;;87.27;29.10;;;-11.10;99.90;;;;;;5140371;27;20192;-67
2021/12/27 05:41:56;;;;;;;78.73;27.27;;;-11.10;99.90;;;;;;5139909;27;20183;-67
2021/12/27 05:44:23;;;;;;;79.97;28.93;;;-11.10;99.90;;;;;;5156574;27;20483;-67
2021/12/27 05:46:50;;;;;;;85.07;28.13;;;-11.10;99.90;;;;;;5139752;27;20179;-67
2021/12/27 05:49:17;;;;;;;82.10;28.83;;;-11.10;99.90;;;;;;5140540;27;20148;-67
2021/12/27 05:51:44;;;;;;;78.20;28.13;;;-11.10;99.90;;;;;;5139838;27;20152;-67
2021/12/27 05:54:12;;;;;;;79.47;28.53;;;-11.10;99.90;;;;;;5140291;27;20435;-67
2021/12/27 05:56:43;;;;;;;78.73;27.07;;;-11.10;99.90;;;;;;5156556;27;20530;-67
2021/12/27 05:59:12;;;;;;;81.77;28.60;;;-11.10;99.90;;;;;;5158568;27;20467;-67
2021/12/27 06:01:40;;;;;;;83.60;27.77;;;-11.20;99.90;;;;;;5159884;27;20550;-67
2021/12/27 06:04:07;;;;;;;69.80;26.40;;;-11.20;99.90;;;;;;5140350;27;20211;-67
2021/12/27 06:06:34;;;;;;;72.93;25.77;;;-11.20;99.90;;;;;;5158394;27;20534;-67
2021/12/27 06:09:02;;;;;;;80.00;26.63;;;-11.30;99.90;;;;;;5157548;27;20148;-67
2021/12/27 06:11:29;;;;;;;73.40;26.27;;;-11.30;99.90;;;;;;5158409;27;20140;-67
2021/12/27 06:13:56;;;;;;;78.27;28.03;;;-11.30;99.90;;;;;;5158471;27;20527;-67
2021/12/27 06:16:23;;;;;;;81.10;25.83;;;-11.30;99.90;;;;;;5139726;27;20212;-67
2021/12/27 06:18:50;;;;;;;75.10;26.13;;;-11.30;99.90;;;;;;5139229;27;20513;-67
2021/12/27 06:21:17;;;;;;;69.00;25.17;;;-11.30;99.90;;;;;;5139072;27;20151;-67
2021/12/27 06:23:46;;;;;;;83.83;25.33;;;-11.30;99.90;;;;;;5158442;27;20470;-67
2021/12/27 06:26:13;;;;;;;74.53;25.27;;;-11.30;99.90;;;;;;5157065;27;20502;-67
2021/12/27 06:28:40;;;;;;;68.40;25.13;;;-11.30;99.90;;;;;;5157971;27;20452;-68
2021/12/27 06:31:07;;;;;;;80.10;26.50;;;-11.30;99.90;;;;;;5139699;27;20158;-67
2021/12/27 06:33:35;;;;;;;81.77;26.07;;;-11.40;99.90;;;;;;5139950;27;20199;-67
2021/12/27 06:36:02;;;;;;;77.37;26.53;;;-11.40;99.90;;;;;;5140201;27;20546;-67
2021/12/27 06:38:29;;;;;;;71.07;24.67;;;-11.40;99.90;;;;;;5139803;27;20179;-67
2021/12/27 06:40:58;;;;;;;82.13;26.30;;;-11.50;99.90;;;;;;5157228;27;20178;-67
2021/12/27 06:43:25;;;;;;;71.77;25.80;;;-11.50;99.90;;;;;;5140177;27;20146;-68
2021/12/27 06:45:52;;;;;;;71.23;24.80;;;-11.60;99.90;;;;;;5139889;27;20168;-67
2021/12/27 06:48:19;;;;;;;66.70;24.90;;;-11.60;99.90;;;;;;5141315;27;20192;-68
2021/12/27 06:50:46;;;;;;;72.87;26.17;;;-11.60;99.90;;;;;;5159151;27;20191;-67
2021/12/27 06:53:13;;;;;;;72.30;26.83;;;-11.60;99.90;;;;;;5157409;27;20206;-67
2021/12/27 06:55:43;;;;;;;76.10;25.67;;;-11.60;99.90;;;;;;5157360;27;20518;-67
2021/12/27 06:58:11;;;;;;;80.43;25.67;;;-11.50;99.90;;;;;;5141178;27;20541;-67
2021/12/27 07:00:38;;;;;;;83.23;26.60;;;-11.50;99.90;;;;;;5156746;27;20144;-67
2021/12/27 07:03:05;;;;;;;73.00;25.97;;;-11.50;99.90;;;;;;5157176;27;20162;-67
2021/12/27 07:05:33;;;;;;;68.87;24.90;;;-11.50;99.90;;;;;;5156618;27;20414;-67
2021/12/27 07:08:00;;;;;;;78.60;26.50;;;-11.50;99.90;;;;;;5139234;27;20491;-67
2021/12/27 07:10:28;;;;;;;75.77;26.67;;;-11.50;99.90;;;;;;5157897;27;20348;-67
2021/12/27 07:12:55;;;;;;;75.17;26.53;;;-11.50;99.90;;;;;;5141060;27;20151;-68
2021/12/27 07:15:22;;;;;;;89.27;28.27;;;-11.50;99.90;;;;;;5138856;27;20521;-67
2021/12/27 07:17:49;;;;;;;87.37;29.13;;;-11.50;99.90;;;;;;5140778;27;20141;-67
2021/12/27 07:20:16;;;;;;;76.03;28.07;;;-11.50;99.90;;;;;;5139851;27;20144;-67
2021/12/27 07:22:43;;;;;;;91.47;27.33;;;-11.40;99.90;;;;;;5138940;27;20152;-67
2021/12/27 07:25:10;;;;;;;99.47;29.27;;;-11.40;99.90;;;;;;5156755;27;20140;-67
2021/12/27 07:27:37;;;;;;;85.37;28.57;;;-11.30;99.90;;;;;;5157150;27;20205;-67
2021/12/27 07:30:07;;;;;;;93.20;30.00;;;-11.20;99.90;;;;;;5138739;27;20463;-67
2021/12/27 07:32:34;;;;;;;77.60;28.87;;;-11.20;99.90;;;;;;5139441;27;20139;-67
2021/12/27 07:35:02;;;;;;;86.27;26.50;;;-11.20;99.90;;;;;;5141079;27;20144;-67
2021/12/27 07:37:29;;;;;;;96.10;28.73;;;-11.10;99.90;;;;;;5140437;27;20549;-68
2021/12/27 07:39:56;;;;;;;83.50;27.73;;;-11.10;99.90;;;;;;5139514;27;20148;-67
2021/12/27 07:42:23;;;;;;;83.43;27.33;;;-11.10;99.90;;;;;;5159659;27;20383;-67
2021/12/27 07:44:50;;;;;;;82.77;27.47;;;-11.00;99.90;;;;;;5140058;27;20547;-68
2021/12/27 07:47:17;;;;;;;78.87;26.80;;;-11.10;99.90;;;;;;5139569;27;20221;-68
2021/12/27 07:49:44;;;;;;;80.03;26.83;;;-11.00;99.90;;;;;;5139635;27;20144;-67
2021/12/27 07:52:11;;;;;;;75.93;28.17;;;-11.00;99.90;;;;;;5140670;27;20179;-67
2021/12/27 07:54:38;;;;;;;73.80;26.90;;;-10.90;99.90;;;;;;5138611;27;20145;-68
2021/12/27 07:57:05;;;;;;;87.00;27.93;;;-10.80;99.90;;;;;;5160103;27;20439;-67
2021/12/27 07:59:32;;;;;;;81.63;27.33;;;-10.80;99.90;;;;;;5157458;27;20176;-68
2021/12/27 08:02:00;;;;;;;87.30;29.33;;;-10.60;99.90;;;;;;5157347;27;20149;-68
2021/12/27 08:04:27;;;;;;;91.93;29.63;;;-10.30;99.90;;;;;;5158746;27;20164;-68
2021/12/27 08:06:54;;;;;;;86.87;29.23;;;-10.00;99.90;;;;;;5138616;27;20220;-67
2021/12/27 08:09:21;;;;;;;93.57;30.63;;;-9.90;99.90;;;;;;5140000;27;20192;-68
2021/12/27 08:11:48;;;;;;;92.40;29.13;;;-9.80;99.90;;;;;;5140029;27;20178;-68
2021/12/27 08:14:15;;;;;;;93.03;30.97;;;-9.60;99.90;;;;;;5141495;27;20211;-68
2021/12/27 08:16:42;;;;;;;104.27;32.87;;;-9.50;99.90;;;;;;5139625;27;20160;-67
2021/12/27 08:19:09;;;;;;;96.47;32.33;;;-9.20;99.90;;;;;;5141732;27;20148;-67
2021/12/27 08:21:37;;;;;;;95.90;31.73;;;-9.10;99.90;;;;;;5140074;27;20144;-67
2021/12/27 08:24:08;;;;;;;89.20;32.03;;;-8.90;99.90;;;;;;5158447;27;20163;-67
2021/12/27 08:26:35;;;;;;;94.90;32.47;;;-8.70;99.90;;;;;;5140596;27;20144;-68
2021/12/27 08:29:06;;;;;;;100.03;32.17;;;-8.50;99.90;;;;;;5140399;27;20188;-68
2021/12/27 08:31:33;;;;;;;94.70;32.07;;;-8.30;99.90;;;;;;5140124;27;20180;-68
2021/12/27 08:34:00;;;;;;;94.33;32.27;;;-8.10;99.90;;;;;;5142499;27;20147;-67
2021/12/27 08:36:27;;;;;;;107.37;34.60;;;-8.00;99.90;;;;;;5159319;27;20140;-67
2021/12/27 08:38:54;;;;;;;92.50;34.20;;;-7.90;99.90;;;;;;5140802;27;20188;-67
2021/12/27 08:41:27;;;;;;;90.90;32.90;;;-7.90;99.90;;;;;;5140086;27;20191;-68
2021/12/27 08:44:01;;;;;;;107.17;34.33;;;-7.90;99.90;;;;;;5140586;27;20184;-67
2021/12/27 08:46:28;;;;;;;93.40;34.53;;;-8.20;99.90;;;;;;5140981;27;20179;-67
2021/12/27 08:48:55;;;;;;;98.87;33.27;;;-8.30;99.90;;;;;;5158634;27;20120;-67
2021/12/27 08:51:22;;;;;;;95.47;34.77;;;-8.50;99.90;;;;;;5159777;27;20143;-67
2021/12/27 08:53:49;;;;;;;101.43;33.37;;;-8.60;99.90;;;;;;5159015;27;20199;-68
2021/12/27 08:56:18;;;;;;;98.60;32.37;;;-8.70;99.90;;;;;;5157183;27;20149;-67
2021/12/27 08:58:45;;;;;;;95.73;32.50;;;-8.80;99.90;;;;;;5141222;27;20144;-67
2021/12/27 09:01:13;;;;;;;96.87;31.57;;;-8.80;99.90;;;;;;5159777;27;20120;-67
2021/12/27 09:03:40;;;;;;;95.73;32.87;;;-8.90;99.90;;;;;;5158513;27;20135;-67
2021/12/27 09:06:09;;;;;;;104.47;33.97;;;-9.00;99.90;;;;;;5159067;27;20227;-67
2021/12/27 09:08:36;;;;;;;109.73;33.37;;;-9.10;99.90;;;;;;5139454;27;20162;-67
2021/12/27 09:11:03;;;;;;;100.77;33.37;;;-9.10;99.90;;;;;;5140593;27;20144;-68
2021/12/27 09:13:33;;;;;;;95.20;33.93;;;-9.10;99.90;;;;;;5140528;27;20152;-68
2021/12/27 09:16:01;;;;;;;93.30;32.93;;;-9.10;99.90;;;;;;5158127;27;20191;-67
2021/12/27 09:18:31;;;;;;;96.83;34.53;;;-9.20;99.90;;;;;;5158223;27;20141;-67
2021/12/27 09:20:59;;;;;;;95.30;33.10;;;-9.20;99.90;;;;;;5139165;27;20214;-67
2021/12/27 09:23:27;;;;;;;98.97;32.57;;;-9.20;99.90;;;;;;5141495;27;20171;-67
2021/12/27 09:25:54;;;;;;;92.63;32.33;;;-9.20;99.90;;;;;;5158117;27;20163;-67
2021/12/27 09:28:21;;;;;;;95.80;33.00;;;-9.20;99.90;;;;;;5141564;27;20155;-67
2021/12/27 09:30:48;;;;;;;103.07;33.47;;;-9.20;99.90;;;;;;5158088;27;20184;-67
2021/12/27 09:33:15;;;;;;;103.40;34.73;;;-9.20;99.90;;;;;;5139653;27;20258;-67
2021/12/27 09:35:42;;;;;;;98.70;33.63;;;-9.10;99.90;;;;;;5141091;27;20148;-67
2021/12/27 09:38:11;;;;;;;91.50;33.23;;;-9.10;99.90;;;;;;5141924;27;20405;-67
2021/12/27 09:40:38;;;;;;;101.07;33.53;;;-9.00;99.90;;;;;;5158833;27;20183;-67
2021/12/27 09:43:06;;;;;;;100.57;32.60;;;-9.10;99.90;;;;;;5159659;27;20127;-67
2021/12/27 09:45:33;;;;;;;106.63;34.00;;;-9.00;99.90;;;;;;5159200;27;20183;-67
2021/12/27 09:48:01;;;;;;;92.80;32.07;;;-9.00;99.90;;;;;;5140038;27;20149;-67
2021/12/27 09:50:37;;;;;;;89.47;32.00;;;-8.90;99.90;;;;;;5139825;27;20180;-68
2021/12/27 09:53:04;;;;;;;92.53;31.30;;;-8.90;99.90;;;;;;5156292;27;20147;-67
2021/12/27 09:55:36;;;;;;;93.23;31.37;;;-8.80;99.90;;;;;;5140832;27;20184;-68
2021/12/27 09:58:05;;;;;;;90.03;31.13;;;-8.70;99.90;;;;;;5141273;27;20148;-67
2021/12/27 10:00:34;;;;;;;98.67;32.23;;;-8.60;99.90;;;;;;5140300;27;20146;-68
2021/12/27 10:03:01;;;;;;;92.00;31.77;;;-8.50;99.90;;;;;;5140447;27;20144;-68
2021/12/27 10:05:30;;;;;;;88.40;30.23;;;-8.50;99.90;;;;;;5156279;27;20188;-67
2021/12/27 10:07:58;;;;;;;89.23;30.80;;;-8.50;99.90;;;;;;5139791;27;20308;-68
2021/12/27 10:10:34;;;;;;;92.67;30.40;;;-8.50;99.90;;;;;;5140130;27;20131;-67
2021/12/27 10:13:07;;;;;;;83.23;28.67;;;-8.50;99.90;;;;;;5141419;27;20150;-67
2021/12/27 10:15:40;;;;;;;88.47;31.17;;;-8.40;99.90;;;;;;5158350;27;20130;-68
2021/12/27 10:18:12;;;;;;;83.17;31.13;;;-8.30;99.90;;;;;;5138859;27;20147;-67
2021/12/27 10:20:40;;;;;;;84.67;30.00;;;-8.20;99.90;;;;;;5141136;27;20163;-67
2021/12/27 10:23:07;;;;;;;83.37;30.23;;;-8.10;99.90;;;;;;5155813;27;20172;-67
2021/12/27 10:25:34;;;;;;;88.63;30.57;;;-8.00;99.90;;;;;;5157392;27;20498;-67
2021/12/27 10:28:03;;;;;;;75.67;30.03;;;-7.90;99.90;;;;;;5138990;27;20141;-68
2021/12/27 10:30:40;;;;;;;88.73;30.90;;;-7.90;99.90;;;;;;5140879;27;20191;-68
2021/12/27 10:33:08;;;;;;;84.37;28.93;;;-7.90;99.90;;;;;;5138603;27;20521;-68
2021/12/27 10:35:39;;;;;;;77.53;28.27;;;-7.90;99.90;;;;;;5158066;27;20140;-67
2021/12/27 10:38:28;;;;;;;86.17;30.73;;;-7.80;99.90;;;;;;5157807;27;20148;-68
2021/12/27 10:40:59;;;;;;;83.10;28.53;;;-7.70;99.90;;;;;;5158682;27;20155;-67
2021/12/27 10:43:41;;;;;;;91.10;31.10;;;-7.60;99.90;;;;;;5158084;27;20155;-68
2021/12/27 10:46:14;;;;;;;88.30;31.40;;;-7.60;99.90;;;;;;5141475;27;20533;-67
2021/12/27 10:48:45;;;;;;;94.57;32.73;;;-7.50;99.90;;;;;;5140739;27;20140;-67
2021/12/27 10:51:17;;;;;;;89.03;31.67;;;-7.40;99.90;;;;;;5158322;27;20170;-68
2021/12/27 10:53:55;;;;;;;93.17;32.37;;;-7.30;99.90;;;;;;5140469;27;20144;-68
2021/12/27 10:56:25;;;;;;;80.67;29.53;;;-7.30;99.90;;;;;;5159149;27;20119;-68
2021/12/27 10:58:55;;;;;;;90.37;31.37;;;-7.20;99.90;;;;;;5156667;27;20140;-67
2021/12/27 11:01:26;;;;;;;86.57;31.07;;;-7.20;99.90;;;;;;5141269;27;20159;-67
2021/12/27 11:03:59;;;;;;;82.77;30.73;;;-7.10;99.90;;;;;;5159948;27;20385;-68
2021/12/27 11:06:29;;;;;;;84.73;31.10;;;-7.00;99.90;;;;;;5139546;27;20179;-68
2021/12/27 11:08:58;;;;;;;88.77;30.50;;;-6.90;99.90;;;;;;5158353;27;20146;-68
2021/12/27 11:11:27;;;;;;;86.17;31.80;;;-6.80;99.90;;;;;;5158698;27;20116;-68
2021/12/27 11:13:58;;;;;;;90.70;31.43;;;-6.70;99.90;;;;;;5156809;27;20160;-68
2021/12/27 11:16:27;;;;;;;82.20;29.63;;;-6.60;99.90;;;;;;5157881;27;20147;-67
2021/12/27 11:18:56;;;;;;;82.17;30.43;;;-6.50;99.90;;;;;;5156973;27;20195;-68
2021/12/27 11:21:32;;;;;;;82.80;31.20;;;-6.50;99.90;;;;;;5139890;27;20183;-68
2021/12/27 11:24:01;;;;;;;78.13;29.20;;;-6.40;99.90;;;;;;5140036;27;20246;-68
2021/12/27 11:26:30;;;;;;;75.87;29.27;;;-6.30;99.90;;;;;;5139909;27;20155;-68
2021/12/27 11:29:14;;;;;;;74.27;29.07;;;-6.20;99.90;;;;;;5140278;27;20144;-68
2021/12/27 11:31:43;;;;;;;79.57;29.53;;;-6.10;99.90;;;;;;5158827;27;20126;-68
2021/12/27 11:34:13;;;;;;;77.23;28.83;;;-6.10;99.90;;;;;;5141183;27;20199;-67
2021/12/27 11:36:46;;;;;;;75.17;28.17;;;-6.00;99.90;;;;;;5157777;27;20151;-68
2021/12/27 11:39:28;;;;;;;69.83;24.90;;;-5.90;99.90;;;;;;5139175;27;20175;-68
2021/12/27 11:41:57;;;;;;;65.57;24.60;;;-5.80;99.90;;;;;;5140155;27;20199;-68
2021/12/27 11:44:36;;;;;;;68.37;24.67;;;-5.40;99.90;;;;;;5139368;27;20136;-68
2021/12/27 11:47:05;;;;;;;58.13;22.40;;;-4.70;99.90;;;;;;5160257;27;20140;-68
2021/12/27 11:49:36;;;;;;;59.63;21.73;;;-4.00;99.90;;;;;;5141788;27;20159;-68
2021/12/27 11:52:16;;;;;;;62.90;22.90;;;-3.30;99.90;;;;;;5140649;27;20187;-68
2021/12/27 11:54:51;;;;;;;51.10;20.63;;;-2.40;99.90;;;;;;5158811;27;20120;-68
2021/12/27 11:57:53;;;;;;;52.63;20.33;;;-2.10;99.90;;;;;;5138672;27;20146;-68
2021/12/27 12:00:24;;;;;;;48.30;19.37;;;-1.80;99.90;;;;;;5158058;27;20116;-68
2021/12/27 12:02:55;;;;;;;51.03;20.53;;;-1.90;99.90;;;;;;5156293;27;20148;-68
2021/12/27 12:05:59;;;;;;;48.70;19.47;;;-2.10;99.90;;;;;;5139454;27;20155;-68
2021/12/27 12:08:38;;;;;;;48.13;19.03;;;-2.50;99.90;;;;;;5140132;27;20351;-68
2021/12/27 12:11:08;;;;;;;47.03;17.57;;;-3.00;99.90;;;;;;5157808;27;20132;-68
2021/12/27 12:13:41;;;;;;;47.17;17.73;;;-3.40;99.90;;;;;;5140858;27;20189;-67
2021/12/27 12:16:11;;;;;;;47.67;17.07;;;-3.80;99.90;;;;;;5157633;27;20144;-68
2021/12/27 12:18:41;;;;;;;48.37;16.43;;;-3.90;99.90;;;;;;5138675;27;20197;-68
2021/12/27 12:21:33;;;;;;;43.23;16.63;;;-4.20;99.90;;;;;;5140038;27;20144;-68
2021/12/27 12:24:08;;;;;;;48.43;15.60;;;-4.50;99.90;;;;;;5138685;27;20168;-68
2021/12/27 12:26:59;;;;;;;44.13;15.47;;;-4.70;99.90;;;;;;5158300;27;20143;-68
2021/12/27 12:29:39;;;;;;;40.53;15.03;;;-4.80;99.90;;;;;;5138693;27;20160;-67
2021/12/27 12:32:09;;;;;;;46.70;16.17;;;-5.00;99.90;;;;;;5156692;27;20159;-68
2021/12/27 12:34:37;;;;;;;43.90;15.40;;;-5.00;99.90;;;;;;5156028;27;20207;-68